createdAt,value
2023-04-29T00:02:22.128Z,31.90
2023-04-29T00:05:30.369Z,31.90
2023-04-29T00:08:38.511Z,31.80
2023-04-29T00:11:47.200Z,31.80
2023-04-29T00:14:55.016Z,31.80
2023-04-29T00:18:04.318Z,31.80
2023-04-29T00:21:12.413Z,31.70
2023-04-29T00:24:20.116Z,31.70
2023-04-29T00:27:28.258Z,31.70
2023-04-29T00:30:36.485Z,32.30
2023-04-29T00:33:45.870Z,31.70
2023-04-29T00:36:54.026Z,31.60
2023-04-29T00:40:02.194Z,31.60
2023-04-29T00:43:10.386Z,31.60
2023-04-29T00:46:18.252Z,31.60
2023-04-29T00:49:28.108Z,31.60
2023-04-29T00:52:35.836Z,31.60
2023-04-29T00:55:43.576Z,31.60
2023-04-29T00:58:52.697Z,31.50
2023-04-29T01:02:01.432Z,31.50
2023-04-29T01:05:10.908Z,31.50
2023-04-29T01:08:23.939Z,31.50
2023-04-29T01:11:38.053Z,31.50
2023-04-29T01:14:49.604Z,31.50
2023-04-29T01:18:00.310Z,31.50
2023-04-29T01:21:09.649Z,31.50
2023-04-29T01:24:19.047Z,31.50
2023-04-29T01:27:31.014Z,31.50
2023-04-29T01:30:48.562Z,31.40
2023-04-29T01:34:01.137Z,31.40
2023-04-29T01:37:14.763Z,31.40
2023-04-29T01:40:33.251Z,31.40
2023-04-29T01:43:55.533Z,31.40
2023-04-29T01:47:05.556Z,31.40
2023-04-29T01:50:22.614Z,31.40
2023-04-29T01:53:32.888Z,31.40
2023-04-29T01:56:43.015Z,31.40
2023-04-29T02:00:12.112Z,31.40
2023-04-29T02:03:27.561Z,31.30
2023-04-29T02:06:37.881Z,31.30
2023-04-29T02:09:46.755Z,31.30
2023-04-29T02:12:56.517Z,31.40
2023-04-29T02:16:09.478Z,31.30
2023-04-29T02:19:19.261Z,31.30
2023-04-29T02:22:27.320Z,31.30
2023-04-29T02:25:37.376Z,31.30
2023-04-29T02:28:47.238Z,31.30
2023-04-29T02:31:55.335Z,31.30
2023-04-29T02:35:03.267Z,31.30
2023-04-29T02:38:11.999Z,31.30
2023-04-29T02:41:19.929Z,31.20
2023-04-29T02:44:31.447Z,31.20
2023-04-29T02:47:40.522Z,31.20
2023-04-29T02:50:49.238Z,31.20
2023-04-29T02:53:57.668Z,31.20
2023-04-29T02:57:06.051Z,31.20
2023-04-29T03:00:15.661Z,31.10
2023-04-29T03:03:24.156Z,31.10
2023-04-29T03:06:32.610Z,31.10
2023-04-29T03:09:40.730Z,31.10
2023-04-29T03:12:49.138Z,31.10
2023-04-29T03:16:00.568Z,31.10
2023-04-29T03:19:09.130Z,31.10
2023-04-29T03:22:17.110Z,31.10
2023-04-29T03:25:25.289Z,31.00
2023-04-29T03:28:33.529Z,31.10
2023-04-29T03:31:43.779Z,31.00
2023-04-29T03:34:52.333Z,31.00
2023-04-29T03:38:10.288Z,31.00
2023-04-29T03:41:19.526Z,31.00
2023-04-29T03:44:29.425Z,31.00
2023-04-29T03:47:38.682Z,31.00
2023-04-29T03:50:46.842Z,31.00
2023-04-29T03:53:56.240Z,31.00
2023-04-29T03:57:04.618Z,31.00
2023-04-29T04:00:13.610Z,31.00
2023-04-29T04:03:23.855Z,31.00
2023-04-29T04:06:32.396Z,31.00
2023-04-29T04:09:40.748Z,31.00
2023-04-29T04:12:48.736Z,31.00
2023-04-29T04:15:57.041Z,31.00
2023-04-29T04:19:06.356Z,31.00
2023-04-29T04:22:18.245Z,31.00
2023-04-29T04:25:40.242Z,31.00
2023-04-29T04:29:06.335Z,31.00
2023-04-29T04:32:25.957Z,31.00
2023-04-29T04:35:35.600Z,30.90
2023-04-29T04:38:43.428Z,31.60
2023-04-29T04:41:53.452Z,31.00
2023-04-29T04:45:01.943Z,31.00
2023-04-29T04:48:23.423Z,31.00
2023-04-29T04:51:34.005Z,31.00
2023-04-29T04:54:41.966Z,31.00
2023-04-29T04:57:58.459Z,31.00
2023-04-29T05:01:06.723Z,31.00
2023-04-29T05:04:15.576Z,31.00
2023-04-29T05:07:25.098Z,31.00
2023-04-29T05:10:45.147Z,31.00
2023-04-29T05:13:53.542Z,31.00
2023-04-29T05:17:01.514Z,31.00
2023-04-29T05:20:10.827Z,31.10
2023-04-29T05:23:20.373Z,31.00
2023-04-29T05:26:28.998Z,31.10
2023-04-29T05:29:40.996Z,31.10
2023-04-29T05:32:49.090Z,31.10
2023-04-29T05:35:59.490Z,31.30
2023-04-29T05:39:08.662Z,31.40
2023-04-29T05:42:16.487Z,31.40
2023-04-29T05:45:29.215Z,31.50
2023-04-29T05:48:37.422Z,31.60
2023-04-29T05:51:45.456Z,32.00
2023-04-29T05:54:54.879Z,32.00
2023-04-29T05:58:03.051Z,32.50
2023-04-29T06:01:11.446Z,32.20
2023-04-29T06:04:20.011Z,32.10
2023-04-29T06:07:52.001Z,32.30
2023-04-29T06:11:15.719Z,32.90
2023-04-29T06:14:24.381Z,32.90
2023-04-29T06:17:33.744Z,32.90
2023-04-29T06:20:41.700Z,32.90
2023-04-29T06:23:49.840Z,33.00
2023-04-29T06:27:00.168Z,33.10
2023-04-29T06:30:09.341Z,33.10
2023-04-29T06:33:18.784Z,33.10
2023-04-29T06:36:27.125Z,33.20
2023-04-29T06:39:58.553Z,33.30
2023-04-29T06:43:48.063Z,33.30
2023-04-29T06:46:56.736Z,33.50
2023-04-29T06:50:21.060Z,33.50
2023-04-29T06:53:29.259Z,33.80
2023-04-29T06:56:37.186Z,34.40
2023-04-29T06:59:46.637Z,35.10
2023-04-29T07:02:55.780Z,36.00
2023-04-29T07:06:03.889Z,33.90
2023-04-29T07:09:12.070Z,34.20
2023-04-29T07:12:20.072Z,34.30
2023-04-29T07:15:29.895Z,34.20
2023-04-29T07:18:37.668Z,34.10
2023-04-29T07:21:45.895Z,34.00
2023-04-29T07:24:55.038Z,33.80
2023-04-29T07:28:03.527Z,33.70
2023-04-29T07:31:14.320Z,33.50
2023-04-29T07:34:22.393Z,33.50
2023-04-29T07:37:30.417Z,33.50
2023-04-29T07:40:38.452Z,33.30
2023-04-29T07:43:46.533Z,33.30
2023-04-29T07:46:55.995Z,33.20
2023-04-29T07:50:05.318Z,33.10
2023-04-29T07:53:13.507Z,33.10
2023-04-29T07:56:21.619Z,33.10
2023-04-29T07:59:29.451Z,33.00
2023-04-29T08:02:39.273Z,32.90
2023-04-29T08:05:48.434Z,32.80
2023-04-29T08:08:58.181Z,32.80
2023-04-29T08:12:06.809Z,32.70
2023-04-29T08:15:14.690Z,32.70
2023-04-29T08:18:24.074Z,32.60
2023-04-29T08:21:32.162Z,32.60
2023-04-29T08:24:41.728Z,32.50
2023-04-29T08:27:49.457Z,32.50
2023-04-29T08:30:57.901Z,32.40
2023-04-29T08:34:07.326Z,32.50
2023-04-29T08:37:17.666Z,32.40
2023-04-29T08:40:26.776Z,32.30
2023-04-29T08:43:35.732Z,32.20
2023-04-29T08:46:44.033Z,32.20
2023-04-29T08:49:54.767Z,32.10
2023-04-29T08:53:02.859Z,32.30
2023-04-29T08:56:14.521Z,32.20
2023-04-29T08:59:22.470Z,32.30
2023-04-29T09:02:30.632Z,32.20
2023-04-29T09:05:41.901Z,32.00
2023-04-29T09:08:49.880Z,32.00
2023-04-29T09:11:57.999Z,31.90
2023-04-29T09:15:06.872Z,31.80
2023-04-29T09:18:16.607Z,31.90
2023-04-29T09:21:27.146Z,32.10
2023-04-29T09:24:35.403Z,32.10
2023-04-29T09:27:43.343Z,32.20
2023-04-29T09:30:51.463Z,32.00
2023-04-29T09:33:59.652Z,32.00
2023-04-29T09:37:09.852Z,32.30
2023-04-29T09:40:30.333Z,32.60
2023-04-29T09:43:38.410Z,32.70
2023-04-29T09:46:47.222Z,32.90
2023-04-29T09:49:55.252Z,33.10
2023-04-29T09:53:04.486Z,34.10
2023-04-29T09:56:12.333Z,33.20
2023-04-29T09:59:20.489Z,33.10
2023-04-29T10:02:28.878Z,32.90
2023-04-29T10:05:36.904Z,33.20
2023-04-29T10:08:46.418Z,33.00
2023-04-29T10:11:54.808Z,32.90
2023-04-29T10:15:04.881Z,33.00
2023-04-29T10:18:15.520Z,32.90
2023-04-29T10:21:25.723Z,32.90
2023-04-29T10:24:35.228Z,34.10
2023-04-29T10:27:44.370Z,33.30
2023-04-29T10:30:52.476Z,33.20
2023-04-29T10:34:01.726Z,33.10
2023-04-29T10:37:11.297Z,33.20
2023-04-29T10:40:23.528Z,33.00
2023-04-29T10:43:31.640Z,32.50
2023-04-29T10:46:39.436Z,32.40
2023-04-29T10:50:05.546Z,32.40
2023-04-29T10:53:14.307Z,32.40
2023-04-29T10:56:24.035Z,32.40
2023-04-29T10:59:46.141Z,32.30
2023-04-29T11:02:55.021Z,32.30
2023-04-29T11:06:09.783Z,32.20
2023-04-29T11:09:21.640Z,32.20
2023-04-29T11:12:33.506Z,32.20
2023-04-29T11:15:42.036Z,32.20
2023-04-29T11:19:06.941Z,32.20
2023-04-29T11:22:17.638Z,32.20
2023-04-29T11:25:26.630Z,32.20
2023-04-29T11:28:35.837Z,32.20
2023-04-29T11:31:44.047Z,32.20
2023-04-29T11:34:52.528Z,32.20
2023-04-29T11:38:00.915Z,32.10
2023-04-29T11:41:08.704Z,32.20
2023-04-29T11:44:18.499Z,32.10
2023-04-29T11:47:30.363Z,32.10
2023-04-29T11:50:38.182Z,32.00
2023-04-29T11:53:46.493Z,32.00
2023-04-29T11:56:54.951Z,32.00
2023-04-29T12:00:06.087Z,32.00
2023-04-29T12:03:15.962Z,32.00
2023-04-29T12:06:24.137Z,32.00
2023-04-29T12:09:43.737Z,32.00
2023-04-29T12:12:51.550Z,31.90
2023-04-29T12:16:01.170Z,31.90
2023-04-29T12:19:10.559Z,31.90
2023-04-29T12:22:18.812Z,31.90
2023-04-29T12:25:27.653Z,31.90
2023-04-29T12:28:36.217Z,31.90
2023-04-29T12:31:48.426Z,31.90
2023-04-29T12:34:56.829Z,31.90
2023-04-29T12:38:04.944Z,32.00
2023-04-29T12:41:13.684Z,32.00
2023-04-29T12:44:21.717Z,32.00
2023-04-29T12:47:35.076Z,31.90
2023-04-29T12:50:43.422Z,31.90
2023-04-29T12:53:52.081Z,31.90
2023-04-29T12:57:00.109Z,32.10
2023-04-29T13:00:10.155Z,32.10
2023-04-29T13:03:22.184Z,32.00
2023-04-29T13:06:30.769Z,32.00
2023-04-29T13:09:41.678Z,32.00
2023-04-29T13:12:49.752Z,31.90
2023-04-29T13:15:58.283Z,31.90
2023-04-29T13:19:24.678Z,32.10
2023-04-29T13:22:37.256Z,32.30
2023-04-29T13:25:45.066Z,32.50
2023-04-29T13:28:53.008Z,32.60
2023-04-29T13:32:01.137Z,32.60
2023-04-29T13:35:10.977Z,32.60
2023-04-29T13:38:19.120Z,32.50
2023-04-29T13:41:28.151Z,32.50
2023-04-29T13:44:50.874Z,32.40
2023-04-29T13:48:09.425Z,32.50
2023-04-29T13:52:07.416Z,32.50
2023-04-29T14:01:54.631Z,32.50
2023-04-29T14:04:43.602Z,32.60
2023-04-29T14:07:52.968Z,32.40
2023-04-29T14:11:01.435Z,32.30
2023-04-29T14:14:09.197Z,32.30
2023-04-29T14:17:17.218Z,32.30
2023-04-29T14:20:25.330Z,32.50
2023-04-29T14:23:34.675Z,32.50
2023-04-29T14:26:43.274Z,32.70
2023-04-29T14:29:50.967Z,32.90
2023-04-29T14:32:59.028Z,32.80
2023-04-29T14:36:07.434Z,33.30
2023-04-29T14:39:16.691Z,32.80
2023-04-29T14:42:24.870Z,32.80
2023-04-29T14:45:33.104Z,32.90
2023-04-29T14:48:41.293Z,32.80
2023-04-29T14:51:49.166Z,33.00
2023-04-29T14:54:58.677Z,33.00
2023-04-29T14:58:06.909Z,32.90
2023-04-29T15:01:15.255Z,32.90
2023-04-29T15:04:23.211Z,32.90
2023-04-29T15:07:31.878Z,33.10
2023-04-29T15:10:41.380Z,33.10
2023-04-29T15:13:49.516Z,33.10
2023-04-29T15:16:57.455Z,33.20
2023-04-29T15:20:07.429Z,33.10
2023-04-29T15:23:15.495Z,33.20
2023-04-29T15:26:24.792Z,33.20
2023-04-29T15:29:34.372Z,33.30
2023-04-29T15:32:44.083Z,33.40
2023-04-29T15:35:52.245Z,33.30
2023-04-29T15:39:00.284Z,33.40
2023-04-29T15:42:09.445Z,33.30
2023-04-29T15:45:17.909Z,34.00
2023-04-29T15:48:25.851Z,33.30
2023-04-29T15:51:33.605Z,33.40
2023-04-29T15:54:41.624Z,33.30
2023-04-29T15:57:51.418Z,33.40
2023-04-29T16:00:59.189Z,33.40
2023-04-29T16:04:07.240Z,33.50
2023-04-29T16:07:15.158Z,33.60
2023-04-29T16:10:23.487Z,33.60
2023-04-29T16:13:34.966Z,33.70
2023-04-29T16:16:44.079Z,33.50
2023-04-29T16:19:52.125Z,33.50
2023-04-29T16:23:00.580Z,33.50
2023-04-29T16:26:08.706Z,33.50
2023-04-29T16:29:18.330Z,33.50
2023-04-29T16:32:28.471Z,33.50
2023-04-29T16:35:37.705Z,33.50
2023-04-29T16:38:45.816Z,33.40
2023-04-29T16:41:53.891Z,34.20
2023-04-29T16:45:04.047Z,33.50
2023-04-29T16:48:11.973Z,33.40
2023-04-29T16:51:20.142Z,33.40
2023-04-29T16:54:28.629Z,33.60
2023-04-29T16:57:36.559Z,34.00
2023-04-29T17:00:45.733Z,34.20
2023-04-29T17:03:53.744Z,34.30
2023-04-29T17:07:03.028Z,34.40
2023-04-29T17:10:11.744Z,34.40
2023-04-29T17:13:20.245Z,34.30
2023-04-29T17:16:30.518Z,34.20
2023-04-29T17:19:39.110Z,34.10
2023-04-29T17:22:47.202Z,34.10
2023-04-29T17:25:56.455Z,34.00
2023-04-29T17:29:04.620Z,34.10
2023-04-29T17:32:17.259Z,34.10
2023-04-29T17:35:25.189Z,34.00
2023-04-29T17:38:33.726Z,34.00
2023-04-29T17:41:41.814Z,34.00
2023-04-29T17:44:49.865Z,34.00
2023-04-29T17:47:59.350Z,34.00
2023-04-29T17:51:07.531Z,34.00
2023-04-29T17:54:15.515Z,33.90
2023-04-29T17:57:23.469Z,33.90
2023-04-29T18:00:31.304Z,33.80
2023-04-29T18:03:42.102Z,33.80
2023-04-29T18:06:50.055Z,33.80
2023-04-29T18:09:58.496Z,33.70
2023-04-29T18:13:06.679Z,33.70
2023-04-29T18:16:14.843Z,33.90
2023-04-29T18:19:24.093Z,34.00
2023-04-29T18:22:32.570Z,33.80
2023-04-29T18:25:40.584Z,33.70
2023-04-29T18:28:48.442Z,33.70
2023-04-29T18:31:56.452Z,33.70
2023-04-29T18:35:06.457Z,33.90
2023-04-29T18:38:17.403Z,33.70
2023-04-29T18:41:25.320Z,33.60
2023-04-29T18:44:34.171Z,33.60
2023-04-29T18:47:42.089Z,33.50
2023-04-29T18:50:53.358Z,33.50
2023-04-29T18:54:01.580Z,33.50
2023-04-29T18:57:09.824Z,33.60
2023-04-29T19:00:18.043Z,33.60
2023-04-29T19:03:26.325Z,33.60
2023-04-29T19:06:35.752Z,33.50
2023-04-29T19:09:43.626Z,33.70
2023-04-29T19:12:51.291Z,33.50
2023-04-29T19:15:59.369Z,33.30
2023-04-29T19:19:07.675Z,33.30
2023-04-29T19:22:17.037Z,33.10
2023-04-29T19:25:25.955Z,33.00
2023-04-29T19:28:34.309Z,33.00
2023-04-29T19:31:42.503Z,32.90
2023-04-29T19:34:50.521Z,32.90
2023-04-29T19:37:59.956Z,32.90
2023-04-29T19:41:07.984Z,33.10
2023-04-29T19:44:15.983Z,33.10
2023-04-29T19:47:24.859Z,33.20
2023-04-29T19:50:33.049Z,33.10
2023-04-29T19:53:42.669Z,33.10
2023-04-29T19:56:50.795Z,33.10
2023-04-29T19:59:58.851Z,33.20
2023-04-29T20:03:06.870Z,33.70
2023-04-29T20:06:16.737Z,33.20
2023-04-29T20:09:26.423Z,33.20
2023-04-29T20:12:35.659Z,33.20
2023-04-29T20:15:43.806Z,33.20
2023-04-29T20:18:52.220Z,33.20
2023-04-29T20:22:01.308Z,33.20
2023-04-29T20:25:10.919Z,33.20
2023-04-29T20:28:18.657Z,33.20
2023-04-29T20:31:26.768Z,33.20
2023-04-29T20:34:36.320Z,33.20
2023-04-29T20:37:44.478Z,33.20
2023-04-29T20:40:55.214Z,33.20
2023-04-29T20:44:03.588Z,33.30
2023-04-29T20:47:12.449Z,33.40
2023-04-29T20:50:20.763Z,33.40
2023-04-29T20:53:28.590Z,33.40
2023-04-29T20:56:38.002Z,33.30
2023-04-29T20:59:46.183Z,33.20
2023-04-29T21:02:54.419Z,33.30
2023-04-29T21:06:02.685Z,33.20
2023-04-29T21:09:11.063Z,33.20
2023-04-29T21:12:20.586Z,33.20
2023-04-29T21:15:29.312Z,33.10
2023-04-29T21:18:37.386Z,33.20
2023-04-29T21:21:45.242Z,33.20
2023-04-29T21:24:53.261Z,33.20
2023-04-29T21:28:02.724Z,33.20
2023-04-29T21:31:15.360Z,33.20
2023-04-29T21:34:23.318Z,33.20
2023-04-29T21:37:31.784Z,33.20
2023-04-29T21:40:42.047Z,33.30
2023-04-29T21:43:51.631Z,33.30
2023-04-29T21:47:00.752Z,33.20
2023-04-29T21:50:10.323Z,33.20
2023-04-29T21:53:18.321Z,33.30
2023-04-29T21:56:26.404Z,33.30
2023-04-29T21:59:36.139Z,33.40
2023-04-29T22:02:44.374Z,33.40
2023-04-29T22:05:52.374Z,33.40
2023-04-29T22:09:00.450Z,33.50
2023-04-29T22:12:08.676Z,33.50
2023-04-29T22:15:28.237Z,33.50
2023-04-29T22:18:37.151Z,33.50
2023-04-29T22:21:45.118Z,33.50
2023-04-29T22:24:53.153Z,33.40
2023-04-29T22:28:01.638Z,33.30
2023-04-29T22:31:10.977Z,33.30
2023-04-29T22:34:19.072Z,33.30
2023-04-29T22:37:27.360Z,33.20
2023-04-29T22:40:37.046Z,33.20
2023-04-29T22:43:45.356Z,33.20
2023-04-29T22:46:54.605Z,33.10
2023-04-29T22:50:02.778Z,33.00
2023-04-29T22:53:10.752Z,33.00
2023-04-29T22:56:18.801Z,33.00
2023-04-29T22:59:26.715Z,33.00
2023-04-29T23:02:36.062Z,32.90
2023-04-29T23:05:44.287Z,32.90
2023-04-29T23:08:53.399Z,32.90
2023-04-29T23:12:02.366Z,33.50
2023-04-29T23:15:10.916Z,32.80
2023-04-29T23:18:20.306Z,32.80
2023-04-29T23:21:28.384Z,32.80
2023-04-29T23:24:36.474Z,32.70
2023-04-29T23:27:44.562Z,32.70
2023-04-29T23:30:52.224Z,32.70
2023-04-29T23:34:01.885Z,32.60
2023-04-29T23:37:09.907Z,32.60
2023-04-29T23:40:18.035Z,32.60
2023-04-29T23:43:26.255Z,32.60
2023-04-29T23:46:34.049Z,32.60
2023-04-29T23:49:43.439Z,32.50
2023-04-29T23:52:51.651Z,32.50
2023-04-29T23:55:59.808Z,32.50
2023-04-29T23:59:07.765Z,32.50
